Terminal Aerodrome Forecast
Issued by NWS

Home | Current Version | Previous Version | Text Only | Print | Product List | Glossary On
Versions: 1 2 3 4 5 6 7 8 9 10 11 12 13 14 15
000
FTUS42 KMLB 292333
TAFTIX
TAF
KTIX 292333Z 3000/3024 22006KT P6SM SCT030 OVC100
     FM300300 22004KT P6SM SCT035 SCT070
     FM301200 25006KT P6SM SCT030 BKN100
     FM301500 28007KT P6SM VCSH SCT025 BKN080 BKN200
      AMD NOT SKED 3002/3012=

USA.gov is the U.S. government's official web portal to all federal, state and local government web resources and services.